sensor_id;sensor_type;location;lat;lon;timestamp;pressure;altitude;pressure_sealevel;temperature;humidity
62122;BME280;48108;47.532;19.084;2024-03-08T05:05:28;68997.94;;;4.40;100.00
62122;BME280;48108;47.532;19.084;2024-03-08T05:08:31;69001.72;;;4.41;100.00
62122;BME280;48108;47.532;19.084;2024-03-08T05:11:35;68989.25;;;4.32;100.00
62122;BME280;48108;47.532;19.084;2024-03-08T05:14:39;69004.03;;;4.43;100.00
62122;BME280;48108;47.532;19.084;2024-03-08T05:17:42;68993.31;;;4.36;100.00
62122;BME280;48108;47.532;19.084;2024-03-08T05:20:48;69054.38;;;4.39;100.00
62122;BME280;48108;47.532;19.084;2024-03-08T05:23:51;68992.72;;;4.36;100.00
62122;BME280;48108;47.532;19.084;2024-03-08T05:26:54;68993.06;;;4.34;100.00
62122;BME280;48108;47.532;19.084;2024-03-08T05:29:57;68997.69;;;4.38;100.00
62122;BME280;48108;47.532;19.084;2024-03-08T05:33:00;69002.22;;;4.46;100.00
62122;BME280;48108;47.532;19.084;2024-03-08T05:36:03;68999.44;;;4.39;100.00
62122;BME280;48108;47.532;19.084;2024-03-08T05:39:07;69001.16;;;4.41;100.00
62122;BME280;48108;47.532;19.084;2024-03-08T05:42:09;68998.84;;;4.39;100.00
62122;BME280;48108;47.532;19.084;2024-03-08T05:45:13;69001.72;;;4.41;100.00
62122;BME280;48108;47.532;19.084;2024-03-08T05:48:17;69015.94;;;4.51;100.00
62122;BME280;48108;47.532;19.084;2024-03-08T05:51:23;69030.97;;;4.65;100.00
62122;BME280;48108;47.532;19.084;2024-03-08T05:54:26;69024.28;;;4.61;100.00
62122;BME280;48108;47.532;19.084;2024-03-08T05:57:29;69021.38;;;4.59;100.00
62122;BME280;48108;47.532;19.084;2024-03-08T06:00:32;69023.13;;;4.60;100.00
62122;BME280;48108;47.532;19.084;2024-03-08T06:03:35;69030.06;;;4.66;100.00
62122;BME280;48108;47.532;19.084;2024-03-08T06:06:38;69040.72;;;4.78;100.00
62122;BME280;48108;47.532;19.084;2024-03-08T06:09:43;69047.06;;;4.84;100.00
62122;BME280;48108;47.532;19.084;2024-03-08T06:12:48;69056.66;;;4.90;100.00
62122;BME280;48108;47.532;19.084;2024-03-08T06:15:52;69059.22;;;4.94;100.00
62122;BME280;48108;47.532;19.084;2024-03-08T06:18:56;69120.34;;;4.97;100.00
62122;BME280;48108;47.532;19.084;2024-03-08T06:22:00;69077.47;;;5.08;100.00
62122;BME280;48108;47.532;19.084;2024-03-08T06:25:06;69069.13;;;4.98;100.00
62122;BME280;48108;47.532;19.084;2024-03-08T06:28:09;69047.97;;;4.82;100.00
62122;BME280;48108;47.532;19.084;2024-03-08T06:31:12;69054.34;;;4.88;100.00
62122;BME280;48108;47.532;19.084;2024-03-08T06:34:15;69047.66;;;4.84;100.00
62122;BME280;48108;47.532;19.084;2024-03-08T06:37:20;69047.41;;;4.82;100.00
62122;BME280;48108;47.532;19.084;2024-03-08T06:40:24;69054.91;;;4.88;100.00
62122;BME280;48108;47.532;19.084;2024-03-08T06:43:27;69058.63;;;4.94;100.00
62122;BME280;48108;47.532;19.084;2024-03-08T06:46:36;69054.00;;;4.90;100.00
62122;BME280;48108;47.532;19.084;2024-03-08T06:49:44;69061.88;;;4.94;100.00
62122;BME280;48108;47.532;19.084;2024-03-08T06:52:47;69053.53;;;4.85;100.00
62122;BME280;48108;47.532;19.084;2024-03-08T06:55:53;69057.56;;;4.88;100.00
62122;BME280;48108;47.532;19.084;2024-03-08T06:58:56;69047.41;;;4.82;100.00
62122;BME280;48108;47.532;19.084;2024-03-08T07:02:00;69054.00;;;4.90;100.00
62122;BME280;48108;47.532;19.084;2024-03-08T07:05:03;69067.41;;;4.97;100.00
62122;BME280;48108;47.532;19.084;2024-03-08T07:08:06;69083.19;;;5.18;100.00
62122;BME280;48108;47.532;19.084;2024-03-08T07:11:10;69094.50;;;5.26;100.00
62122;BME280;48108;47.532;19.084;2024-03-08T07:14:13;69091.03;;;5.22;100.00
62122;BME280;48108;47.532;19.084;2024-03-08T07:17:18;69102.94;;;5.31;100.00
62122;BME280;48108;47.532;19.084;2024-03-08T07:20:21;69109.53;;;5.39;100.00
62122;BME280;48108;47.532;19.084;2024-03-08T07:23:24;69111.84;;;5.41;100.00
62122;BME280;48108;47.532;19.084;2024-03-08T07:26:46;69103.44;;;5.36;100.00
62122;BME280;48108;47.532;19.084;2024-03-08T07:29:53;69122.94;;;5.46;100.00
62122;BME280;48108;47.532;19.084;2024-03-08T07:33:11;69125.25;;;5.48;100.00
62122;BME280;48108;47.532;19.084;2024-03-08T07:36:15;69126.41;;;5.49;100.00
62122;BME280;48108;47.532;19.084;2024-03-08T07:39:18;69141.72;;;5.65;100.00
62122;BME280;48108;47.532;19.084;2024-03-08T07:42:21;69143.09;;;5.68;100.00
62122;BME280;48108;47.532;19.084;2024-03-08T07:45:25;69147.47;;;5.70;100.00
62122;BME280;48108;47.532;19.084;2024-03-08T07:48:29;69143.44;;;5.66;100.00
62122;BME280;48108;47.532;19.084;2024-03-08T07:51:33;69140.53;;;5.64;100.00
62122;BME280;48108;47.532;19.084;2024-03-08T07:54:38;69157.91;;;5.79;100.00
62122;BME280;48108;47.532;19.084;2024-03-08T07:57:40;69158.75;;;5.82;100.00
62122;BME280;48108;47.532;19.084;2024-03-08T08:00:45;69158.75;;;5.82;100.00
62122;BME280;48108;47.532;19.084;2024-03-08T08:03:48;69172.66;;;5.95;100.00
62122;BME280;48108;47.532;19.084;2024-03-08T08:06:52;69151.78;;;5.76;100.00
62122;BME280;48108;47.532;19.084;2024-03-08T08:09:57;69172.13;;;5.89;100.00
62122;BME280;48108;47.532;19.084;2024-03-08T08:13:00;69169.47;;;5.89;100.00
62122;BME280;48108;47.532;19.084;2024-03-08T08:16:05;69164.84;;;5.85;100.00
62122;BME280;48108;47.532;19.084;2024-03-08T08:19:11;69139.97;;;5.63;100.00
62122;BME280;48108;47.532;19.084;2024-03-08T08:22:17;69165.44;;;5.86;100.00
62122;BME280;48108;47.532;19.084;2024-03-08T08:25:20;69188.03;;;6.06;100.00
62122;BME280;48108;47.532;19.084;2024-03-08T08:28:25;69196.38;;;6.16;100.00
62122;BME280;48108;47.532;19.084;2024-03-08T08:31:28;69169.47;;;5.89;100.00
62122;BME280;48108;47.532;19.084;2024-03-08T08:34:31;69169.16;;;5.91;100.00
62122;BME280;48108;47.532;19.084;2024-03-08T08:37:34;69167.75;;;5.88;100.00
62122;BME280;48108;47.532;19.084;2024-03-08T08:40:40;69172.66;;;5.95;100.00
62122;BME280;48108;47.532;19.084;2024-03-08T08:43:43;69151.53;;;5.74;100.00
62122;BME280;48108;47.532;19.084;2024-03-08T08:47:01;69174.72;;;5.94;100.00
62122;BME280;48108;47.532;19.084;2024-03-08T08:50:14;69194.72;;;6.09;100.00
62122;BME280;48108;47.532;19.084;2024-03-08T08:53:19;69197.88;;;6.15;100.00
62122;BME280;48108;47.532;19.084;2024-03-08T08:56:21;69200.44;;;6.19;100.00
62122;BME280;48108;47.532;19.084;2024-03-08T08:59:24;69187.94;;;6.10;100.00
62122;BME280;48108;47.532;19.084;2024-03-08T09:02:27;69211.19;;;6.26;100.00
62122;BME280;48108;47.532;19.084;2024-03-08T09:05:31;69210.94;;;6.24;100.00
62122;BME280;48108;47.532;19.084;2024-03-08T09:08:38;69206.78;;;6.25;100.00
62122;BME280;48108;47.532;19.084;2024-03-08T09:11:41;69212.25;;;6.32;100.00
62122;BME280;48108;47.532;19.084;2024-03-08T09:14:45;69256.59;;;6.69;100.00
62122;BME280;48108;47.532;19.084;2024-03-08T09:17:48;69268.19;;;6.79;100.00
62122;BME280;48108;47.532;19.084;2024-03-08T09:20:51;69278.38;;;6.86;100.00
62122;BME280;48108;47.532;19.084;2024-03-08T09:23:54;69323.94;;;6.79;100.00
62122;BME280;48108;47.532;19.084;2024-03-08T09:26:57;69284.75;;;6.91;100.00
62122;BME280;48108;47.532;19.084;2024-03-08T09:30:02;69273.97;;;6.84;100.00
62122;BME280;48108;47.532;19.084;2024-03-08T09:33:06;69307.34;;;7.11;100.00
62122;BME280;48108;47.532;19.084;2024-03-08T09:36:09;69309.66;;;7.13;100.00
62122;BME280;48108;47.532;19.084;2024-03-08T09:39:12;69310.25;;;7.14;100.00
62122;BME280;48108;47.532;19.084;2024-03-08T09:42:19;69310.81;;;7.14;100.00
62122;BME280;48108;47.532;19.084;2024-03-08T09:45:23;69341.19;;;7.43;100.00
62122;BME280;48108;47.532;19.084;2024-03-08T09:48:28;69364.72;;;7.62;100.00
62122;BME280;48108;47.532;19.084;2024-03-08T09:51:33;69375.47;;;7.69;100.00
62122;BME280;48108;47.532;19.084;2024-03-08T09:54:38;69353.13;;;7.52;100.00
62122;BME280;48108;47.532;19.084;2024-03-08T09:57:43;69353.13;;;7.52;100.00
62122;BME280;48108;47.532;19.084;2024-03-08T10:01:05;69384.09;;;7.81;100.00
62122;BME280;48108;47.532;19.084;2024-03-08T10:04:09;69402.97;;;7.95;100.00
62122;BME280;48108;47.532;19.084;2024-03-08T10:07:13;69361.56;;;7.57;100.00
62122;BME280;48108;47.532;19.084;2024-03-08T10:10:16;69360.09;;;7.58;100.00
62122;BME280;48108;47.532;19.084;2024-03-08T10:13:19;69376.91;;;7.72;100.00
62122;BME280;48108;47.532;19.084;2024-03-08T10:16:23;69387.91;;;7.82;100.00
62122;BME280;48108;47.532;19.084;2024-03-08T10:19:29;69375.16;;;7.71;100.00
62122;BME280;48108;47.532;19.084;2024-03-08T10:22:33;69363.78;;;7.63;100.00
62122;BME280;48108;47.532;19.084;2024-03-08T10:25:38;69391.97;;;7.86;100.00
62122;BME280;48108;47.532;19.084;2024-03-08T10:28:46;69414.25;;;8.08;100.00
62122;BME280;48108;47.532;19.084;2024-03-08T10:31:50;69414.59;;;8.06;100.00
62122;BME280;48108;47.532;19.084;2024-03-08T10:34:54;69376.91;;;7.72;100.00
62122;BME280;48108;47.532;19.084;2024-03-08T10:37:58;69406.13;;;8.01;100.00
62122;BME280;48108;47.532;19.084;2024-03-08T10:41:03;69402.06;;;7.97;100.00
62122;BME280;48108;47.532;19.084;2024-03-08T10:47:33;69410.78;;;8.05;100.00
62122;BME280;48108;47.532;19.084;2024-03-08T10:50:41;69468.91;;;8.51;100.00
62122;BME280;48108;47.532;19.084;2024-03-08T10:53:50;69541.09;;;9.17;100.00
62122;BME280;48108;47.532;19.084;2024-03-08T10:56:54;69595.09;;;9.65;100.00
62122;BME280;48108;47.532;19.084;2024-03-08T10:59:58;69623.56;;;9.90;100.00
62122;BME280;48108;47.532;19.084;2024-03-08T11:03:02;69603.81;;;9.72;100.00
62122;BME280;48108;47.532;19.084;2024-03-08T11:06:14;69545.97;;;9.24;100.00
62122;BME280;48108;47.532;19.084;2024-03-08T11:09:31;69514.72;;;8.92;100.00
62122;BME280;48108;47.532;19.084;2024-03-08T11:12:37;69483.28;;;8.69;100.00
62122;BME280;48108;47.532;19.084;2024-03-08T11:15:42;69543.31;;;8.72;100.00
62122;BME280;48108;47.532;19.084;2024-03-08T11:18:47;69480.97;;;8.67;100.00
62122;BME280;48108;47.532;19.084;2024-03-08T11:22:03;69457.88;;;8.42;100.00
62122;BME280;48108;47.532;19.084;2024-03-08T11:25:09;69435.81;;;8.22;100.00
62122;BME280;48108;47.532;19.084;2024-03-08T11:28:18;69447.66;;;8.35;100.00
62122;BME280;48108;47.532;19.084;2024-03-08T11:31:24;69459.84;;;8.46;100.00
62122;BME280;48108;47.532;19.084;2024-03-08T11:34:34;69468.31;;;8.51;100.00
62122;BME280;48108;47.532;19.084;2024-03-08T11:37:37;69474.03;;;8.60;100.00
62122;BME280;48108;47.532;19.084;2024-03-08T11:40:40;69454.13;;;8.36;100.00
62122;BME280;48108;47.532;19.084;2024-03-08T11:43:45;69462.84;;;8.44;100.00
62122;BME280;48108;47.532;19.084;2024-03-08T11:46:49;69466.47;;;8.54;100.00
62122;BME280;48108;47.532;19.084;2024-03-08T11:49:52;69472.03;;;8.56;100.00
62122;BME280;48108;47.532;19.084;2024-03-08T11:53:03;69448.47;;;8.38;100.00
62122;BME280;48108;47.532;19.084;2024-03-08T11:56:11;69488.84;;;8.71;100.00
62122;BME280;48108;47.532;19.084;2024-03-08T11:59:14;69517.06;;;8.94;100.00
62122;BME280;48108;47.532;19.084;2024-03-08T12:02:18;69534.72;;;9.12;100.00
62122;BME280;48108;47.532;19.084;2024-03-08T12:05:24;69535.28;;;9.12;100.00
62122;BME280;48108;47.532;19.084;2024-03-08T12:08:28;69493.50;;;8.75;100.00
62122;BME280;48108;47.532;19.084;2024-03-08T12:11:33;69508.81;;;8.91;100.00
62122;BME280;48108;47.532;19.084;2024-03-08T12:14:38;69505.47;;;8.83;100.00
62122;BME280;48108;47.532;19.084;2024-03-08T12:17:50;69482.72;;;8.68;100.00
62122;BME280;48108;47.532;19.084;2024-03-08T12:21:11;69458.09;;;8.44;100.00
62122;BME280;48108;47.532;19.084;2024-03-08T12:24:16;69452.03;;;8.36;100.00
62122;BME280;48108;47.532;19.084;2024-03-08T12:27:21;69428.75;;;8.21;100.00
62122;BME280;48108;47.532;19.084;2024-03-08T12:30:26;69432.78;;;8.24;100.00
62122;BME280;48108;47.532;19.084;2024-03-08T12:33:31;69454.06;;;8.40;100.00
62122;BME280;48108;47.532;19.084;2024-03-08T12:36:35;69479.00;;;8.62;100.00
62122;BME280;48108;47.532;19.084;2024-03-08T12:39:40;69485.94;;;8.69;100.00
62122;BME280;48108;47.532;19.084;2024-03-08T12:42:48;69573.84;;;8.97;100.00
62122;BME280;48108;47.532;19.084;2024-03-08T12:45:52;69516.16;;;8.95;100.00
62122;BME280;48108;47.532;19.084;2024-03-08T12:48:55;69520.44;;;9.01;100.00
62122;BME280;48108;47.532;19.084;2024-03-08T12:51:59;69498.16;;;8.79;100.00
62122;BME280;48108;47.532;19.084;2024-03-08T12:55:02;69513.56;;;8.91;100.00
62122;BME280;48108;47.532;19.084;2024-03-08T12:58:05;69533.56;;;9.11;100.00
62122;BME280;48108;47.532;19.084;2024-03-08T13:01:10;69533.78;;;9.13;100.00
62122;BME280;48108;47.532;19.084;2024-03-08T13:04:13;69534.72;;;9.12;100.00
62122;BME280;48108;47.532;19.084;2024-03-08T13:07:18;69510.91;;;8.91;100.00
62122;BME280;48108;47.532;19.084;2024-03-08T13:10:21;69489.78;;;8.70;100.00
62122;BME280;48108;47.532;19.084;2024-03-08T13:13:25;69480.16;;;8.63;100.00
62122;BME280;48108;47.532;19.084;2024-03-08T13:16:28;69467.88;;;8.57;100.00
62122;BME280;48108;47.532;19.084;2024-03-08T13:19:33;69464.16;;;8.52;100.00
62122;BME280;48108;47.532;19.084;2024-03-08T13:22:36;69449.63;;;8.39;100.00
62122;BME280;48108;47.532;19.084;2024-03-08T13:25:40;69438.13;;;8.24;100.00
62122;BME280;48108;47.532;19.084;2024-03-08T13:28:48;69429.44;;;8.16;100.00
62122;BME280;48108;47.532;19.084;2024-03-08T13:31:57;69411.69;;;8.03;100.00
62122;BME280;48108;47.532;19.084;2024-03-08T13:35:04;69409.59;;;8.04;100.00
62122;BME280;48108;47.532;19.084;2024-03-08T13:38:15;69391.97;;;7.86;100.00
62122;BME280;48108;47.532;19.084;2024-03-08T13:41:18;69392.78;;;7.89;100.00
62122;BME280;48108;47.532;19.084;2024-03-08T13:44:28;69364.97;;;7.64;100.00
62122;BME280;48108;47.532;19.084;2024-03-08T13:47:30;69370.53;;;7.67;100.00
62122;BME280;48108;47.532;19.084;2024-03-08T13:50:34;69350.47;;;7.52;100.00
62122;BME280;48108;47.532;19.084;2024-03-08T13:53:37;69372.81;;;7.69;100.00
62122;BME280;48108;47.532;19.084;2024-03-08T13:56:41;69389.06;;;7.83;100.00
62122;BME280;48108;47.532;19.084;2024-03-08T13:59:46;69369.72;;;7.64;100.00
62122;BME280;48108;47.532;19.084;2024-03-08T14:02:49;69394.53;;;7.90;100.00
62122;BME280;48108;47.532;19.084;2024-03-08T14:05:52;69431.97;;;8.21;100.00
62122;BME280;48108;47.532;19.084;2024-03-08T14:08:58;69433.97;;;8.25;100.00
62122;BME280;48108;47.532;19.084;2024-03-08T14:12:01;69432.34;;;8.19;100.00
62122;BME280;48108;47.532;19.084;2024-03-08T14:15:05;69414.81;;;8.08;100.00
62122;BME280;48108;47.532;19.084;2024-03-08T14:18:09;69397.78;;;7.91;100.00
62122;BME280;48108;47.532;19.084;2024-03-08T14:21:12;69409.13;;;7.99;100.00
62122;BME280;48108;47.532;19.084;2024-03-08T14:24:15;69388.50;;;7.83;100.00
62122;BME280;48108;47.532;19.084;2024-03-08T14:27:19;69378.28;;;7.76;100.00
62122;BME280;48108;47.532;19.084;2024-03-08T14:30:21;69391.06;;;7.87;100.00
62122;BME280;48108;47.532;19.084;2024-03-08T14:33:47;69400.91;;;7.96;100.00
62122;BME280;48108;47.532;19.084;2024-03-08T14:36:53;69455.03;;;7.94;100.00
62122;BME280;48108;47.532;19.084;2024-03-08T14:39:56;69405.31;;;7.98;100.00
62122;BME280;48108;47.532;19.084;2024-03-08T14:42:59;69395.69;;;7.91;100.00
62122;BME280;48108;47.532;19.084;2024-03-08T14:46:07;69401.81;;;7.94;100.00
62122;BME280;48108;47.532;19.084;2024-03-08T14:49:11;69398.91;;;7.92;100.00
62122;BME280;48108;47.532;19.084;2024-03-08T14:52:14;69393.34;;;7.89;100.00
62122;BME280;48108;47.532;19.084;2024-03-08T14:55:30;69367.03;;;7.64;100.00
62122;BME280;48108;47.532;19.084;2024-03-08T14:58:33;69357.75;;;7.56;100.00
62122;BME280;48108;47.532;19.084;2024-03-08T15:01:36;69356.00;;;7.54;100.00
62122;BME280;48108;47.532;19.084;2024-03-08T15:04:39;69338.31;;;7.41;100.00
62122;BME280;48108;47.532;19.084;2024-03-08T15:07:44;69336.91;;;7.37;100.00
62122;BME280;48108;47.532;19.084;2024-03-08T15:10:47;69338.06;;;7.38;100.00
62122;BME280;48108;47.532;19.084;2024-03-08T15:13:57;69329.94;;;7.31;100.00
62122;BME280;48108;47.532;19.084;2024-03-08T15:17:00;69335.84;;;7.32;100.00
62122;BME280;48108;47.532;19.084;2024-03-08T15:20:10;69315.69;;;7.21;100.00
62122;BME280;48108;47.532;19.084;2024-03-08T15:23:18;69314.88;;;7.18;100.00
62122;BME280;48108;47.532;19.084;2024-03-08T15:26:23;69309.66;;;7.13;100.00
62122;BME280;48108;47.532;19.084;2024-03-08T15:29:28;69305.84;;;7.12;100.00
62122;BME280;48108;47.532;19.084;2024-03-08T15:32:32;69316.59;;;7.19;100.00
62122;BME280;48108;47.532;19.084;2024-03-08T15:35:35;69322.41;;;7.24;100.00
62122;BME280;48108;47.532;19.084;2024-03-08T15:38:41;69327.28;;;7.31;100.00
62122;BME280;48108;47.532;19.084;2024-03-08T15:41:46;69322.88;;;7.30;100.00
62122;BME280;48108;47.532;19.084;2024-03-08T15:44:49;69315.44;;;7.18;100.00
62122;BME280;48108;47.532;19.084;2024-03-08T15:47:55;69311.41;;;7.15;100.00
62122;BME280;48108;47.532;19.084;2024-03-08T15:50:59;69307.00;;;7.13;100.00
62122;BME280;48108;47.532;19.084;2024-03-08T15:54:05;69379.38;;;7.25;100.00
62122;BME280;48108;47.532;19.084;2024-03-08T15:57:10;69304.44;;;7.09;100.00
62122;BME280;48108;47.532;19.084;2024-03-08T16:00:19;69314.88;;;7.18;100.00
62122;BME280;48108;47.532;19.084;2024-03-08T16:03:39;69299.47;;;7.07;100.00
62122;BME280;48108;47.532;19.084;2024-03-08T16:06:42;69303.28;;;7.08;100.00
62122;BME280;48108;47.532;19.084;2024-03-08T16:09:47;69302.94;;;7.10;100.00
62122;BME280;48108;47.532;19.084;2024-03-08T16:12:49;69299.81;;;7.04;100.00
62122;BME280;48108;47.532;19.084;2024-03-08T16:15:55;69290.53;;;6.96;100.00
62122;BME280;48108;47.532;19.084;2024-03-08T16:18:58;69290.53;;;6.96;100.00
62122;BME280;48108;47.532;19.084;2024-03-08T16:22:04;69291.69;;;6.97;100.00
62122;BME280;48108;47.532;19.084;2024-03-08T16:25:07;69280.69;;;6.88;100.00
62122;BME280;48108;47.532;19.084;2024-03-08T16:28:15;69286.72;;;6.95;100.00
62122;BME280;48108;47.532;19.084;2024-03-08T16:31:19;69290.06;;;6.91;100.00
62122;BME280;48108;47.532;19.084;2024-03-08T16:34:22;69286.13;;;6.95;100.00
62122;BME280;48108;47.532;19.084;2024-03-08T16:37:25;69288.22;;;6.94;100.00
62122;BME280;48108;47.532;19.084;2024-03-08T16:40:31;69296.31;;;7.01;100.00
62122;BME280;48108;47.532;19.084;2024-03-08T16:43:35;69282.34;;;6.94;100.00
62122;BME280;48108;47.532;19.084;2024-03-08T16:46:39;69282.66;;;6.92;100.00
62122;BME280;48108;47.532;19.084;2024-03-08T16:49:44;69292.28;;;6.98;100.00
62122;BME280;48108;47.532;19.084;2024-03-08T16:52:47;69277.22;;;6.85;100.00
62122;BME280;48108;47.532;19.084;2024-03-08T16:55:54;69291.44;;;6.95;100.00
62122;BME280;48108;47.532;19.084;2024-03-08T16:59:00;69285.91;;;6.92;100.00
62122;BME280;48108;47.532;19.084;2024-03-08T17:02:06;69278.94;;;6.86;100.00
62122;BME280;48108;47.532;19.084;2024-03-08T17:05:14;69269.34;;;6.80;100.00
